createdAt,value
2022-08-26T00:03:56.679Z,19.71
2022-08-26T00:09:02.016Z,19.57
2022-08-26T00:14:08.768Z,19.46
2022-08-26T00:19:13.473Z,19.36
2022-08-26T00:24:21.453Z,19.42
2022-08-26T00:29:27.192Z,19.39
2022-08-26T00:34:32.037Z,19.33
2022-08-26T00:39:36.649Z,19.35
2022-08-26T00:44:42.935Z,19.36
2022-08-26T00:49:48.897Z,19.17
2022-08-26T00:55:01.577Z,19.09
2022-08-26T01:00:14.150Z,19.11
2022-08-26T01:05:20.771Z,19.14
2022-08-26T01:10:31.529Z,18.87
2022-08-26T01:15:42.035Z,18.91
2022-08-26T01:20:58.046Z,18.98
2022-08-26T01:26:19.615Z,18.95
2022-08-26T01:31:29.323Z,19.00
2022-08-26T01:36:36.042Z,19.02
2022-08-26T01:41:44.143Z,19.07
2022-08-26T01:46:51.205Z,19.01
2022-08-26T01:51:58.274Z,18.88
2022-08-26T01:57:05.183Z,18.81
2022-08-26T02:02:10.001Z,18.87
2022-08-26T02:07:14.834Z,18.78
2022-08-26T02:12:27.781Z,18.64
2022-08-26T02:17:40.065Z,18.64
2022-08-26T02:22:46.445Z,18.51
2022-08-26T02:27:53.446Z,18.49
2022-08-26T02:33:02.109Z,18.45
2022-08-26T02:38:11.081Z,18.52
2022-08-26T02:43:17.510Z,18.48
2022-08-26T02:48:23.623Z,18.31
2022-08-26T02:53:32.129Z,18.27
2022-08-26T02:58:41.917Z,18.28
2022-08-26T03:03:46.649Z,18.30
2022-08-26T03:08:56.278Z,18.33
2022-08-26T03:14:03.888Z,18.26
2022-08-26T03:19:10.605Z,18.12
2022-08-26T03:24:15.101Z,18.14
2022-08-26T03:29:37.856Z,18.00
2022-08-26T03:34:43.863Z,18.07
2022-08-26T03:39:48.400Z,18.00
2022-08-26T03:44:54.435Z,18.01
2022-08-26T03:49:59.768Z,17.94
2022-08-26T03:55:05.053Z,18.00
2022-08-26T04:00:18.472Z,18.06
2022-08-26T04:05:24.907Z,18.02
2022-08-26T04:10:29.737Z,18.09
2022-08-26T04:15:35.772Z,18.08
2022-08-26T04:20:41.053Z,18.07
2022-08-26T04:25:46.000Z,18.07
2022-08-26T04:30:52.351Z,18.09
2022-08-26T04:36:02.339Z,18.18
2022-08-26T04:41:14.916Z,18.27
2022-08-26T04:46:25.196Z,18.35
2022-08-26T04:51:29.745Z,18.48
2022-08-26T04:56:36.518Z,18.55
2022-08-26T05:01:46.230Z,18.73
2022-08-26T05:06:52.164Z,18.84
2022-08-26T05:11:57.434Z,18.97
2022-08-26T05:17:03.866Z,19.12
2022-08-26T05:22:13.079Z,19.26
2022-08-26T05:27:18.070Z,19.41
2022-08-26T05:32:24.577Z,19.51
2022-08-26T05:37:29.950Z,19.71
2022-08-26T05:42:36.627Z,19.83
2022-08-26T05:47:43.171Z,19.94
2022-08-26T05:52:47.575Z,20.18
2022-08-26T05:57:52.142Z,20.47
2022-08-26T06:02:58.963Z,20.79
2022-08-26T06:08:14.602Z,21.09
2022-08-26T06:13:19.982Z,21.07
2022-08-26T06:18:32.755Z,21.36
2022-08-26T06:23:55.474Z,21.93
2022-08-26T06:29:01.713Z,23.35
2022-08-26T06:34:10.967Z,25.77
2022-08-26T06:39:18.955Z,28.69
2022-08-26T06:44:24.672Z,31.83
2022-08-26T06:49:31.427Z,33.21
2022-08-26T06:54:37.234Z,34.33
2022-08-26T06:59:44.392Z,34.47
2022-08-26T07:04:51.196Z,36.74
2022-08-26T07:09:56.265Z,37.36
2022-08-26T07:15:02.269Z,38.81
2022-08-26T07:20:12.465Z,39.68
2022-08-26T07:25:17.096Z,38.46
2022-08-26T07:30:24.798Z,38.15
2022-08-26T07:35:30.591Z,39.85
2022-08-26T07:40:36.120Z,41.16
2022-08-26T07:45:52.792Z,41.58
2022-08-26T07:50:59.625Z,40.76
2022-08-26T07:56:05.094Z,40.70
2022-08-26T08:01:09.877Z,40.35
2022-08-26T08:06:16.608Z,41.27
2022-08-26T08:11:22.376Z,40.89
2022-08-26T08:16:27.334Z,38.79
2022-08-26T08:21:34.299Z,38.23
2022-08-26T08:26:39.065Z,37.74
2022-08-26T08:31:56.524Z,36.87
2022-08-26T08:37:10.620Z,36.82
2022-08-26T08:42:33.593Z,35.35
2022-08-26T08:47:43.754Z,34.78
2022-08-26T08:53:00.361Z,34.50
2022-08-26T08:58:10.602Z,34.30
2022-08-26T09:03:33.965Z,33.63
2022-08-26T09:08:41.586Z,32.57
2022-08-26T09:13:56.131Z,33.02
2022-08-26T09:19:19.371Z,32.48
2022-08-26T09:24:28.565Z,32.16
2022-08-26T09:29:44.385Z,32.54
2022-08-26T09:34:58.412Z,32.61
2022-08-26T09:40:27.041Z,31.90
2022-08-26T09:45:39.982Z,32.67
2022-08-26T09:50:56.281Z,32.48
2022-08-26T09:56:18.113Z,32.42
2022-08-26T10:01:32.917Z,32.55
2022-08-26T10:06:42.210Z,32.94
2022-08-26T10:11:53.913Z,33.10
2022-08-26T10:17:05.522Z,33.27
2022-08-26T10:22:16.861Z,33.00
2022-08-26T10:27:33.227Z,33.04
2022-08-26T10:32:43.484Z,33.71
2022-08-26T10:37:54.113Z,33.82
2022-08-26T10:43:11.442Z,33.49
2022-08-26T10:48:22.960Z,33.47
2022-08-26T10:53:39.738Z,32.78
2022-08-26T10:59:01.392Z,33.38
2022-08-26T11:04:14.969Z,34.01
2022-08-26T11:09:47.227Z,34.54
2022-08-26T11:14:58.898Z,34.31
2022-08-26T11:20:09.265Z,34.44
2022-08-26T11:25:19.822Z,34.19
2022-08-26T11:30:48.229Z,34.18
2022-08-26T11:36:12.057Z,34.45
2022-08-26T11:41:24.857Z,33.42
2022-08-26T11:46:37.996Z,33.11
2022-08-26T11:51:48.274Z,34.07
2022-08-26T11:56:54.398Z,34.32
2022-08-26T12:02:02.585Z,34.10
2022-08-26T12:07:09.116Z,33.88
2022-08-26T12:12:16.540Z,33.87
2022-08-26T12:17:29.826Z,34.24
2022-08-26T12:22:39.059Z,34.11
2022-08-26T12:27:53.599Z,34.20
2022-08-26T12:33:22.760Z,34.43
2022-08-26T12:38:29.642Z,34.17
2022-08-26T12:43:45.813Z,33.80
2022-08-26T12:48:53.304Z,34.02
2022-08-26T12:53:59.020Z,33.95
2022-08-26T12:59:12.257Z,34.63
2022-08-26T13:04:40.527Z,34.39
2022-08-26T13:09:45.404Z,33.73
2022-08-26T13:14:51.096Z,34.64
2022-08-26T13:20:03.513Z,34.95
2022-08-26T13:25:09.537Z,35.02
2022-08-26T13:30:15.852Z,35.74
2022-08-26T13:35:22.045Z,36.09
2022-08-26T13:40:28.466Z,35.86
2022-08-26T13:45:36.534Z,35.60
2022-08-26T13:50:42.328Z,37.78
2022-08-26T13:55:48.228Z,38.40
2022-08-26T14:00:52.842Z,39.22
2022-08-26T14:05:59.793Z,38.13
2022-08-26T14:11:04.652Z,38.39
2022-08-26T14:16:13.670Z,38.21
2022-08-26T14:21:20.975Z,35.41
2022-08-26T14:26:28.799Z,36.16
2022-08-26T14:31:38.075Z,37.48
2022-08-26T14:36:44.849Z,35.35
2022-08-26T14:41:53.893Z,36.36
2022-08-26T14:47:02.745Z,37.04
2022-08-26T14:52:08.942Z,37.47
2022-08-26T14:57:17.281Z,36.78
2022-08-26T15:02:32.329Z,37.71
2022-08-26T15:07:40.724Z,37.84
2022-08-26T15:12:47.134Z,33.79
2022-08-26T15:17:51.784Z,32.00
2022-08-26T15:22:59.004Z,31.50
2022-08-26T15:28:10.789Z,31.18
2022-08-26T15:33:15.889Z,31.09
2022-08-26T15:38:21.700Z,30.33
2022-08-26T15:43:29.039Z,30.12
2022-08-26T15:48:33.953Z,29.99
2022-08-26T15:53:39.750Z,29.46
2022-08-26T15:58:44.767Z,29.72
2022-08-26T16:09:28.177Z,29.27
2022-08-26T16:14:42.347Z,29.19
2022-08-26T16:19:47.253Z,28.91
2022-08-26T16:24:58.175Z,28.89
2022-08-26T16:30:02.993Z,28.74
2022-08-26T16:35:09.883Z,28.58
2022-08-26T16:40:15.985Z,28.48
2022-08-26T16:45:21.164Z,28.38
2022-08-26T16:50:26.095Z,28.16
2022-08-26T16:55:32.516Z,27.88
2022-08-26T17:00:38.242Z,27.78
2022-08-26T17:05:42.602Z,27.61
2022-08-26T17:10:48.875Z,27.41
2022-08-26T17:16:00.341Z,27.24
2022-08-26T17:21:11.886Z,26.92
2022-08-26T17:26:18.204Z,26.61
2022-08-26T17:31:24.894Z,26.39
2022-08-26T17:36:29.229Z,26.22
2022-08-26T17:41:35.133Z,25.91
2022-08-26T17:46:39.812Z,25.75
2022-08-26T17:51:44.377Z,25.56
2022-08-26T17:56:50.523Z,25.37
2022-08-26T18:01:55.696Z,25.27
2022-08-26T18:07:00.620Z,25.30
2022-08-26T18:12:07.796Z,25.13
2022-08-26T18:17:12.615Z,25.07
2022-08-26T18:22:23.795Z,24.89
2022-08-26T18:27:29.895Z,24.87
2022-08-26T18:32:34.914Z,24.87
2022-08-26T18:37:39.493Z,24.76
2022-08-26T18:42:45.951Z,24.72
2022-08-26T18:47:54.119Z,24.59
2022-08-26T18:52:58.822Z,24.50
2022-08-26T18:58:05.040Z,24.43
2022-08-26T19:03:15.581Z,24.34
2022-08-26T19:08:23.872Z,24.24
2022-08-26T19:13:30.637Z,23.98
2022-08-26T19:18:35.079Z,23.91
2022-08-26T19:23:41.704Z,23.75
2022-08-26T19:28:49.736Z,23.69
2022-08-26T19:33:54.636Z,23.75
2022-08-26T19:39:00.608Z,23.59
2022-08-26T19:44:10.784Z,23.51
2022-08-26T19:49:15.896Z,23.51
2022-08-26T19:54:22.857Z,23.37
2022-08-26T19:59:29.412Z,23.44
2022-08-26T20:04:34.329Z,23.45
2022-08-26T20:09:40.173Z,23.45
2022-08-26T20:14:46.380Z,23.11
2022-08-26T20:20:28.459Z,23.07
2022-08-26T20:25:33.929Z,22.97
2022-08-26T20:30:40.421Z,22.78
2022-08-26T20:35:45.069Z,22.68
2022-08-26T20:40:51.318Z,22.62
2022-08-26T20:46:03.215Z,22.45
2022-08-26T20:51:12.963Z,22.33
2022-08-26T20:56:22.159Z,22.10
2022-08-26T21:01:34.753Z,22.05
2022-08-26T21:06:40.165Z,21.90
2022-08-26T21:11:47.389Z,21.86
2022-08-26T21:16:53.859Z,21.80
2022-08-26T21:22:00.012Z,21.69
2022-08-26T21:27:04.570Z,21.52
2022-08-26T21:32:10.611Z,21.53
2022-08-26T21:37:19.978Z,21.40
2022-08-26T21:42:27.007Z,21.13
2022-08-26T21:47:33.485Z,21.11
2022-08-26T21:52:39.623Z,21.00
2022-08-26T21:57:44.533Z,20.93
2022-08-26T22:02:50.876Z,20.83
2022-08-26T22:07:55.556Z,20.90
2022-08-26T22:13:00.229Z,20.85
2022-08-26T22:18:09.914Z,20.50
2022-08-26T22:23:14.986Z,20.43
2022-08-26T22:28:20.334Z,20.40
2022-08-26T22:33:27.085Z,20.32
2022-08-26T22:38:32.442Z,20.34
2022-08-26T22:43:38.872Z,20.34
2022-08-26T22:48:44.516Z,20.14
2022-08-26T22:53:49.510Z,20.06
2022-08-26T22:58:53.853Z,20.01
2022-08-26T23:03:59.613Z,20.11
2022-08-26T23:09:04.959Z,20.04
2022-08-26T23:14:09.839Z,19.96
2022-08-26T23:19:18.213Z,19.82
2022-08-26T23:24:23.051Z,19.72
2022-08-26T23:29:27.741Z,19.65
2022-08-26T23:34:51.015Z,19.68
2022-08-26T23:39:56.573Z,19.58
2022-08-26T23:45:01.335Z,19.52
2022-08-26T23:50:09.414Z,19.46
2022-08-26T23:55:15.179Z,19.32
